Time;durP1;ratioP1;P1;durP2;ratioP2;P2;SDS_P1;SDS_P2;PMS_P1;PMS_P2;Temp;Humidity;BMP_temperature;BMP_pressure;BME280_temperature;BME280_humidity;BME280_pressure;Samples;Min_cycle;Max_cycle;Signal;HPM_P1;HPM_P2
2023/07/06 00:01:23;;;;;;;5.32;1.52;;;;;;;;;;5104147;28;20216;-61
2023/07/06 00:03:51;;;;;;;4.78;1.35;;;;;;;;;;5104234;28;20027;-57
2023/07/06 00:06:19;;;;;;;7.35;1.95;;;;;;;;;;5104344;28;20051;-56
2023/07/06 00:08:45;;;;;;;5.85;1.77;;;;;;;;;;5104356;28;20039;-60
2023/07/06 00:11:12;;;;;;;4.30;1.77;;;;;;;;;;5104771;28;20016;-58
2023/07/06 00:13:39;;;;;;;3.17;1.45;;;;;;;;;;5104422;28;20028;-58
2023/07/06 00:16:06;;;;;;;3.30;1.60;;;;;;;;;;5095746;28;20224;-59
2023/07/06 00:18:33;;;;;;;3.22;0.95;;;;;;;;;;5083519;28;20040;-61
2023/07/06 00:21:00;;;;;;;4.60;0.95;;;;;;;;;;5094604;28;20224;-62
2023/07/06 00:23:28;;;;;;;4.20;0.90;;;;;;;;;;5083326;28;20039;-55
2023/07/06 00:25:54;;;;;;;3.35;1.02;;;;;;;;;;5084703;28;20111;-57
2023/07/06 00:28:28;;;;;;;2.45;1.05;;;;;;;;;;5086864;28;20037;-62
2023/07/06 00:31:01;;;;;;;7.68;0.85;;;;;;;;;;5087078;28;20040;-59
2023/07/06 00:33:29;;;;;;;4.03;0.98;;;;;;;;;;5087063;28;20032;-53
2023/07/06 00:35:57;;;;;;;6.55;0.70;;;;;;;;;;5086964;28;20040;-55
2023/07/06 00:38:24;;;;;;;3.78;0.55;;;;;;;;;;5086945;28;20027;-54
2023/07/06 00:40:57;;;;;;;6.20;1.27;;;;;;;;;;5087199;28;20028;-54
2023/07/06 00:43:28;;;;;;;3.50;1.30;;;;;;;;;;5086743;28;20033;-62
2023/07/06 00:45:59;;;;;;;4.32;1.40;;;;;;;;;;5087077;28;20043;-57
2023/07/06 00:48:34;;;;;;;3.85;0.98;;;;;;;;;;5086955;28;20219;-58
2023/07/06 00:51:10;;;;;;;5.03;1.38;;;;;;;;;;5090300;28;20221;-61
2023/07/06 00:53:38;;;;;;;2.13;1.10;;;;;;;;;;5098822;28;20077;-54
2023/07/06 00:56:06;;;;;;;10.25;1.67;;;;;;;;;;5106733;28;20028;-58
2023/07/06 00:58:36;;;;;;;5.10;2.13;;;;;;;;;;5107218;28;20225;-59
2023/07/06 01:01:05;;;;;;;6.35;2.00;;;;;;;;;;5106935;28;20016;-53
2023/07/06 01:03:46;;;;;;;3.95;2.10;;;;;;;;;;5088987;28;20290;-57
2023/07/06 01:06:17;;;;;;;5.63;2.13;;;;;;;;;;5107197;28;20337;-58
2023/07/06 01:08:49;;;;;;;6.03;3.22;;;;;;;;;;5106964;28;20185;-56
2023/07/06 01:11:20;;;;;;;7.45;2.25;;;;;;;;;;5106918;28;20031;-55
2023/07/06 01:13:51;;;;;;;7.43;2.50;;;;;;;;;;5106950;28;20091;-54
2023/07/06 01:20:01;;;;;;;3.78;1.90;;;;;;;;;;5106939;28;20023;-53
2023/07/06 01:22:29;;;;;;;;;;;;;;;;;;5088873;28;20050;-55
2023/07/06 01:25:13;;;;;;;7.25;2.72;;;;;;;;;;5100584;28;19916;-57
2023/07/06 01:28:10;;;;;;;6.15;2.20;;;;;;;;;;5086173;28;20032;-53
2023/07/06 01:31:02;;;;;;;5.57;1.88;;;;;;;;;;5086668;28;20032;-57
2023/07/06 01:36:54;;;;;;;3.75;1.70;;;;;;;;;;5085841;28;20051;-52
2023/07/06 01:39:22;;;;;;;3.65;1.40;;;;;;;;;;5085822;28;20270;-54
2023/07/06 01:42:09;;;;;;;5.97;1.58;;;;;;;;;;5086076;28;20017;-54
2023/07/06 01:44:37;;;;;;;4.85;1.50;;;;;;;;;;5061191;28;20221;-56
2023/07/06 01:47:04;;;;;;;4.72;1.30;;;;;;;;;;5085798;28;20043;-54
2023/07/06 01:49:33;;;;;;;2.67;1.13;;;;;;;;;;5068050;28;20037;-53
2023/07/06 01:52:06;;;;;;;6.70;0.80;;;;;;;;;;5085662;28;20021;-54
2023/07/06 01:54:58;;;;;;;3.85;1.13;;;;;;;;;;5085795;28;20028;-53
2023/07/06 01:57:28;;;;;;;7.88;1.10;;;;;;;;;;5080690;28;20059;-53
2023/07/06 01:59:58;;;;;;;3.88;1.05;;;;;;;;;;5085767;28;20038;-53
2023/07/06 02:02:26;;;;;;;7.25;1.00;;;;;;;;;;5085356;28;20062;-57
2023/07/06 02:04:55;;;;;;;2.17;0.80;;;;;;;;;;5067646;28;20025;-58
2023/07/06 02:07:22;;;;;;;5.60;1.20;;;;;;;;;;5087887;28;20201;-56
2023/07/06 02:09:54;;;;;;;3.70;0.93;;;;;;;;;;5096894;28;20073;-53
2023/07/06 02:12:21;;;;;;;3.07;0.70;;;;;;;;;;5105135;28;20037;-50
2023/07/06 02:14:51;;;;;;;4.05;1.00;;;;;;;;;;5094031;28;20278;-52
2023/07/06 02:17:20;;;;;;;5.88;1.00;;;;;;;;;;5105349;28;20036;-55
2023/07/06 02:19:46;;;;;;;3.00;0.82;;;;;;;;;;5105889;28;20104;-54
2023/07/06 02:22:13;;;;;;;5.45;0.82;;;;;;;;;;5105414;28;20251;-55
2023/07/06 02:24:39;;;;;;;8.85;0.98;;;;;;;;;;5105289;28;20408;-55
2023/07/06 02:27:09;;;;;;;3.88;0.80;;;;;;;;;;5105421;28;20020;-53
2023/07/06 02:29:36;;;;;;;2.40;0.70;;;;;;;;;;5105209;28;20038;-54
2023/07/06 02:32:04;;;;;;;4.40;0.90;;;;;;;;;;5101162;28;20028;-52
2023/07/06 02:34:32;;;;;;;4.70;0.80;;;;;;;;;;5105173;28;20028;-54
2023/07/06 02:36:59;;;;;;;3.33;0.95;;;;;;;;;;5104905;28;20093;-55
2023/07/06 02:39:25;;;;;;;6.13;0.73;;;;;;;;;;5105027;28;20040;-54
2023/07/06 02:41:53;;;;;;;5.28;1.02;;;;;;;;;;5105057;28;20019;-55
2023/07/06 02:44:22;;;;;;;4.32;0.70;;;;;;;;;;5100430;28;20069;-54
2023/07/06 02:46:49;;;;;;;5.00;0.77;;;;;;;;;;5096209;28;20024;-54
2023/07/06 02:49:16;;;;;;;3.10;0.75;;;;;;;;;;5104912;28;20031;-57
2023/07/06 02:51:43;;;;;;;4.78;0.60;;;;;;;;;;5105038;28;20094;-54
2023/07/06 02:54:13;;;;;;;5.78;0.80;;;;;;;;;;5103917;28;20095;-54
2023/07/06 02:56:41;;;;;;;3.97;0.80;;;;;;;;;;5104482;28;20035;-51
2023/07/06 02:59:09;;;;;;;4.85;0.40;;;;;;;;;;5104695;28;20028;-54
2023/07/06 03:01:35;;;;;;;2.88;0.40;;;;;;;;;;5104644;28;20083;-55
2023/07/06 03:04:09;;;;;;;2.42;0.60;;;;;;;;;;5086124;28;20307;-57
2023/07/06 03:06:36;;;;;;;5.63;0.90;;;;;;;;;;5104432;28;20044;-53
2023/07/06 03:09:03;;;;;;;7.65;0.60;;;;;;;;;;5104790;28;20316;-57
2023/07/06 03:11:31;;;;;;;3.75;0.60;;;;;;;;;;5104575;28;20266;-59
2023/07/06 03:13:59;;;;;;;5.75;0.75;;;;;;;;;;5104363;28;20320;-55
2023/07/06 03:16:26;;;;;;;6.15;0.70;;;;;;;;;;5104406;28;20076;-54
2023/07/06 03:18:53;;;;;;;6.88;0.60;;;;;;;;;;5104587;28;20030;-58
2023/07/06 03:21:20;;;;;;;9.00;0.75;;;;;;;;;;5104300;28;20071;-57
2023/07/06 03:23:49;;;;;;;1.52;0.45;;;;;;;;;;5104552;28;20339;-61
2023/07/06 03:26:16;;;;;;;1.70;0.47;;;;;;;;;;5104332;28;20146;-54
2023/07/06 03:28:42;;;;;;;5.65;0.63;;;;;;;;;;5099411;28;20320;-58
2023/07/06 03:31:14;;;;;;;5.25;0.70;;;;;;;;;;5084565;28;20054;-54
2023/07/06 03:33:41;;;;;;;3.08;0.77;;;;;;;;;;5084494;28;20292;-55
2023/07/06 03:36:09;;;;;;;3.20;0.60;;;;;;;;;;5083867;28;20032;-54
2023/07/06 03:38:35;;;;;;;3.13;0.80;;;;;;;;;;5066032;28;20070;-54
2023/07/06 03:41:03;;;;;;;5.22;0.90;;;;;;;;;;5084120;28;20036;-57
2023/07/06 03:43:31;;;;;;;4.53;0.77;;;;;;;;;;5083543;28;20073;-54
2023/07/06 03:45:59;;;;;;;4.32;0.47;;;;;;;;;;5084032;28;20098;-57
2023/07/06 03:48:26;;;;;;;5.82;0.82;;;;;;;;;;5084026;28;20032;-54
2023/07/06 03:50:53;;;;;;;5.57;0.70;;;;;;;;;;5065741;28;20078;-55
2023/07/06 03:53:21;;;;;;;4.18;0.68;;;;;;;;;;5083919;28;20025;-58
2023/07/06 03:55:51;;;;;;;3.97;0.55;;;;;;;;;;5083826;28;20099;-56
2023/07/06 03:58:20;;;;;;;6.65;0.70;;;;;;;;;;5083594;28;20020;-54
2023/07/06 04:00:47;;;;;;;4.22;1.00;;;;;;;;;;5084897;28;20095;-53
2023/07/06 04:03:14;;;;;;;6.35;0.80;;;;;;;;;;5087725;28;20035;-56
2023/07/06 04:05:47;;;;;;;2.95;0.60;;;;;;;;;;5087666;28;20055;-56
2023/07/06 04:08:17;;;;;;;4.13;0.60;;;;;;;;;;5087620;28;20253;-58
2023/07/06 04:10:44;;;;;;;3.88;0.77;;;;;;;;;;5069478;28;20029;-56
2023/07/06 04:13:15;;;;;;;4.07;0.90;;;;;;;;;;5087782;28;20047;-54
2023/07/06 04:15:47;;;;;;;3.97;0.80;;;;;;;;;;5087396;28;20021;-58
2023/07/06 04:18:16;;;;;;;20.13;1.87;;;;;;;;;;5087366;28;20032;-58
2023/07/06 04:20:43;;;;;;;6.13;1.02;;;;;;;;;;5087405;28;20040;-57
2023/07/06 04:23:09;;;;;;;3.90;0.70;;;;;;;;;;5087548;28;20062;-57
2023/07/06 04:25:37;;;;;;;4.82;0.82;;;;;;;;;;5087251;28;20233;-55
2023/07/06 04:28:05;;;;;;;5.28;0.80;;;;;;;;;;5087433;28;20032;-57
2023/07/06 04:30:33;;;;;;;4.15;0.60;;;;;;;;;;5087816;28;20020;-56
2023/07/06 04:33:00;;;;;;;6.78;0.90;;;;;;;;;;5087137;28;20033;-53
2023/07/06 04:35:27;;;;;;;4.78;0.98;;;;;;;;;;5087691;28;20019;-60
2023/07/06 04:37:54;;;;;;;5.05;0.98;;;;;;;;;;5087203;28;20312;-56
2023/07/06 04:40:21;;;;;;;5.63;0.90;;;;;;;;;;5087356;28;20032;-55
2023/07/06 04:42:49;;;;;;;4.22;1.00;;;;;;;;;;5087111;28;20024;-60
2023/07/06 04:45:17;;;;;;;5.55;0.70;;;;;;;;;;5087480;28;20019;-61
2023/07/06 04:47:44;;;;;;;5.07;0.85;;;;;;;;;;5086929;28;20328;-56
2023/07/06 04:50:17;;;;;;;4.03;0.85;;;;;;;;;;5087250;28;20043;-55
2023/07/06 04:52:45;;;;;;;4.32;0.73;;;;;;;;;;5086891;28;20027;-54
2023/07/06 04:55:12;;;;;;;2.97;0.70;;;;;;;;;;5087275;28;20098;-55
2023/07/06 04:57:39;;;;;;;3.95;0.77;;;;;;;;;;5087107;28;20219;-59
2023/07/06 05:00:18;;;;;;;2.13;0.50;;;;;;;;;;5087332;28;20076;-54
2023/07/06 05:02:48;;;;;;;4.18;0.60;;;;;;;;;;5086806;28;20040;-58
2023/07/06 05:05:17;;;;;;;4.88;0.95;;;;;;;;;;5087132;28;20236;-54
2023/07/06 05:07:45;;;;;;;3.70;0.90;;;;;;;;;;5086434;28;20100;-53
2023/07/06 05:10:13;;;;;;;3.67;0.70;;;;;;;;;;5087172;28;20017;-57
2023/07/06 05:12:39;;;;;;;5.28;0.80;;;;;;;;;;5085323;28;20087;-55
2023/07/06 05:15:07;;;;;;;4.45;0.80;;;;;;;;;;5086980;28;20226;-59
2023/07/06 05:17:34;;;;;;;5.63;0.90;;;;;;;;;;5086344;28;20024;-58
2023/07/06 05:20:00;;;;;;;4.00;0.77;;;;;;;;;;5086783;28;20065;-58
2023/07/06 05:22:27;;;;;;;3.75;0.80;;;;;;;;;;5086155;28;20033;-57
2023/07/06 05:24:54;;;;;;;3.10;0.60;;;;;;;;;;5092254;28;20055;-60
2023/07/06 05:27:20;;;;;;;5.68;0.80;;;;;;;;;;5101840;28;20024;-55
2023/07/06 05:29:47;;;;;;;1.90;0.65;;;;;;;;;;5092665;28;20192;-56
2023/07/06 05:32:14;;;;;;;4.15;0.60;;;;;;;;;;5086061;28;20027;-55
2023/07/06 05:34:41;;;;;;;5.93;0.90;;;;;;;;;;5086618;28;20043;-56
2023/07/06 05:37:07;;;;;;;4.45;0.60;;;;;;;;;;5086603;28;20073;-57
2023/07/06 05:39:34;;;;;;;4.00;0.80;;;;;;;;;;5086538;28;20019;-58
2023/07/06 05:42:01;;;;;;;3.08;0.63;;;;;;;;;;5086035;28;20087;-54
2023/07/06 05:44:28;;;;;;;4.45;0.70;;;;;;;;;;5085954;28;20032;-54
2023/07/06 05:46:54;;;;;;;5.60;0.60;;;;;;;;;;5086198;28;20073;-57
2023/07/06 05:49:21;;;;;;;4.88;0.88;;;;;;;;;;5086451;28;20024;-55
2023/07/06 05:51:48;;;;;;;4.25;0.70;;;;;;;;;;5085754;28;20100;-58
2023/07/06 05:54:14;;;;;;;4.05;0.70;;;;;;;;;;5085902;28;20036;-53
2023/07/06 05:56:42;;;;;;;6.35;0.73;;;;;;;;;;5086421;28;20029;-54
2023/07/06 05:59:09;;;;;;;5.80;0.70;;;;;;;;;;5085441;28;20025;-56
2023/07/06 06:01:36;;;;;;;4.35;0.80;;;;;;;;;;5085478;28;20043;-54
2023/07/06 06:04:03;;;;;;;4.32;0.80;;;;;;;;;;5086123;28;20016;-55
2023/07/06 06:06:46;;;;;;;6.43;0.90;;;;;;;;;;5085789;28;20276;-53
2023/07/06 06:09:12;;;;;;;5.47;0.90;;;;;;;;;;5085635;28;20311;-57
2023/07/06 06:11:39;;;;;;;3.30;0.70;;;;;;;;;;5085394;28;20324;-54
2023/07/06 06:14:06;;;;;;;3.58;0.80;;;;;;;;;;5085595;28;20016;-54
2023/07/06 06:16:33;;;;;;;3.20;0.70;;;;;;;;;;5085291;28;20036;-57
2023/07/06 06:19:03;;;;;;;3.58;0.80;;;;;;;;;;5085635;28;20055;-55
2023/07/06 06:21:31;;;;;;;4.80;0.70;;;;;;;;;;5085051;28;20017;-56
2023/07/06 06:23:58;;;;;;;4.30;0.80;;;;;;;;;;5084936;28;20292;-55
2023/07/06 06:26:25;;;;;;;3.20;0.98;;;;;;;;;;5084954;28;20060;-56
2023/07/06 06:28:52;;;;;;;4.45;0.93;;;;;;;;;;5085102;28;20028;-56
2023/07/06 06:31:19;;;;;;;4.05;0.93;;;;;;;;;;5085615;28;20028;-55
2023/07/06 06:33:46;;;;;;;4.22;0.95;;;;;;;;;;5085293;28;20024;-54
2023/07/06 06:36:17;;;;;;;5.20;1.00;;;;;;;;;;5084833;28;20220;-58
2023/07/06 06:38:44;;;;;;;3.35;0.82;;;;;;;;;;5084894;28;20028;-56
2023/07/06 06:41:11;;;;;;;5.50;0.82;;;;;;;;;;5084628;28;20313;-55
2023/07/06 06:43:38;;;;;;;5.85;0.80;;;;;;;;;;5084794;28;20016;-57
2023/07/06 06:46:08;;;;;;;5.97;1.10;;;;;;;;;;5085056;28;20024;-57
2023/07/06 06:48:35;;;;;;;6.03;1.10;;;;;;;;;;5084998;28;20033;-59
2023/07/06 06:51:04;;;;;;;5.35;1.10;;;;;;;;;;5084835;28;20023;-56
2023/07/06 06:53:31;;;;;;;3.65;0.75;;;;;;;;;;5084840;28;20021;-58
2023/07/06 06:55:58;;;;;;;4.68;0.70;;;;;;;;;;5084444;28;20043;-60
2023/07/06 06:58:25;;;;;;;1.73;0.60;;;;;;;;;;5084526;28;20376;-57
2023/07/06 07:00:58;;;;;;;3.53;0.80;;;;;;;;;;5084789;28;20062;-54
2023/07/06 07:03:24;;;;;;;;;;;;;;;;;;5084688;28;20032;-54
2023/07/06 07:06:13;;;;;;;3.00;0.80;;;;;;;;;;5084575;28;19985;-54
2023/07/06 07:08:43;;;;;;;4.32;0.85;;;;;;;;;;5084514;28;20067;-58
2023/07/06 07:11:10;;;;;;;3.67;0.88;;;;;;;;;;5084237;28;20095;-54
2023/07/06 07:13:37;;;;;;;3.78;0.68;;;;;;;;;;5084359;28;20085;-56
2023/07/06 07:16:05;;;;;;;4.47;0.90;;;;;;;;;;5083918;28;20036;-55
2023/07/06 07:18:33;;;;;;;4.25;1.08;;;;;;;;;;5090106;28;20027;-59
2023/07/06 07:21:01;;;;;;;6.95;0.90;;;;;;;;;;5086549;28;20273;-63
2023/07/06 07:23:35;;;;;;;4.03;0.85;;;;;;;;;;5104000;28;20032;-59
2023/07/06 07:26:03;;;;;;;6.15;0.90;;;;;;;;;;5087778;28;20082;-61
2023/07/06 07:28:31;;;;;;;3.88;0.75;;;;;;;;;;5066194;28;20032;-54
2023/07/06 07:30:58;;;;;;;5.50;0.90;;;;;;;;;;5066166;28;20347;-54
2023/07/06 07:33:28;;;;;;;2.28;0.60;;;;;;;;;;5084200;28;20024;-53
2023/07/06 07:35:57;;;;;;;2.42;0.75;;;;;;;;;;5083387;28;20060;-54
2023/07/06 07:38:24;;;;;;;3.58;0.80;;;;;;;;;;5084234;28;20035;-59
2023/07/06 07:40:55;;;;;;;4.78;1.15;;;;;;;;;;5084813;28;20032;-62
2023/07/06 07:43:28;;;;;;;3.85;0.90;;;;;;;;;;5084305;28;20028;-59
2023/07/06 07:46:00;;;;;;;5.03;0.80;;;;;;;;;;5084382;28;20036;-59
2023/07/06 07:48:27;;;;;;;3.75;1.00;;;;;;;;;;5084081;28;20032;-62
2023/07/06 07:51:01;;;;;;;4.07;1.00;;;;;;;;;;5083970;28;20139;-59
2023/07/06 07:53:29;;;;;;;6.63;1.00;;;;;;;;;;5084147;28;20028;-55
2023/07/06 07:55:56;;;;;;;4.05;1.00;;;;;;;;;;5084172;28;20036;-59
2023/07/06 07:58:24;;;;;;;6.47;1.15;;;;;;;;;;5083737;28;20201;-59
2023/07/06 08:00:51;;;;;;;5.10;0.98;;;;;;;;;;5084165;28;20031;-55
2023/07/06 08:03:18;;;;;;;4.13;1.10;;;;;;;;;;5083846;28;20028;-61
2023/07/06 08:05:46;;;;;;;3.80;0.80;;;;;;;;;;5083698;28;20240;-56
2023/07/06 08:08:13;;;;;;;3.50;1.10;;;;;;;;;;5083770;28;20017;-56
2023/07/06 08:10:40;;;;;;;5.57;1.10;;;;;;;;;;5083754;28;20028;-55
2023/07/06 08:13:09;;;;;;;2.67;1.17;;;;;;;;;;5083838;28;20044;-59
2023/07/06 08:15:39;;;;;;;3.28;1.13;;;;;;;;;;5083897;28;20021;-59
2023/07/06 08:18:06;;;;;;;4.20;1.02;;;;;;;;;;5083612;28;20368;-56
2023/07/06 08:20:34;;;;;;;4.00;0.85;;;;;;;;;;5084502;28;20020;-59
2023/07/06 08:23:02;;;;;;;4.90;1.48;;;;;;;;;;5084013;28;20079;-59
2023/07/06 08:25:28;;;;;;;4.53;1.20;;;;;;;;;;5095486;28;20048;-55
2023/07/06 08:27:56;;;;;;;3.95;1.15;;;;;;;;;;5103650;28;20095;-54
2023/07/06 08:30:23;;;;;;;5.88;1.02;;;;;;;;;;5104155;28;20031;-55
2023/07/06 08:32:50;;;;;;;3.85;0.80;;;;;;;;;;5104035;28;20047;-59
2023/07/06 08:35:18;;;;;;;5.47;0.93;;;;;;;;;;5104075;28;20087;-58
2023/07/06 08:37:45;;;;;;;8.52;1.40;;;;;;;;;;5103898;28;20028;-57
2023/07/06 08:40:17;;;;;;;5.18;1.10;;;;;;;;;;5103964;28;20050;-59
2023/07/06 08:42:48;;;;;;;3.92;1.15;;;;;;;;;;5103146;28;20028;-57
2023/07/06 08:45:20;;;;;;;4.03;1.15;;;;;;;;;;5095245;28;20028;-57
2023/07/06 08:47:48;;;;;;;5.75;1.10;;;;;;;;;;5085619;28;20036;-58
2023/07/06 08:50:15;;;;;;;5.55;1.17;;;;;;;;;;5087847;28;20055;-59
2023/07/06 08:52:43;;;;;;;4.28;1.10;;;;;;;;;;5087521;28;20032;-58
2023/07/06 08:55:15;;;;;;;6.07;1.30;;;;;;;;;;5087264;28;20047;-56
2023/07/06 08:57:46;;;;;;;2.90;1.00;;;;;;;;;;5086792;28;20037;-55
2023/07/06 09:00:22;;;;;;;3.47;1.10;;;;;;;;;;5087062;28;20321;-54
2023/07/06 09:02:59;;;;;;;5.65;0.88;;;;;;;;;;5086890;28;20185;-60
2023/07/06 09:05:31;;;;;;;4.32;1.08;;;;;;;;;;5087385;28;20029;-57
2023/07/06 09:07:58;;;;;;;4.90;0.98;;;;;;;;;;5086914;28;20052;-59
2023/07/06 09:10:28;;;;;;;6.53;1.30;;;;;;;;;;5087343;28;20033;-58
2023/07/06 09:12:56;;;;;;;4.70;1.00;;;;;;;;;;5086812;28;20311;-58
2023/07/06 09:15:27;;;;;;;4.80;0.95;;;;;;;;;;5086613;28;20020;-58
2023/07/06 09:17:57;;;;;;;2.67;0.80;;;;;;;;;;5086753;28;20032;-57
2023/07/06 09:20:26;;;;;;;5.03;0.80;;;;;;;;;;5086706;28;20020;-57
2023/07/06 09:22:53;;;;;;;4.25;0.93;;;;;;;;;;5087204;28;20165;-59
2023/07/06 09:25:26;;;;;;;3.50;0.77;;;;;;;;;;5086737;28;20396;-55
2023/07/06 09:27:55;;;;;;;5.63;0.93;;;;;;;;;;5086674;28;20032;-66
2023/07/06 09:30:30;;;;;;;7.05;0.98;;;;;;;;;;5087277;28;20048;-59
2023/07/06 09:33:19;;;;;;;5.05;0.98;;;;;;;;;;5086293;28;20025;-58
2023/07/06 09:35:47;;;;;;;2.90;0.88;;;;;;;;;;5086211;28;20058;-55
2023/07/06 09:38:14;;;;;;;2.90;0.90;;;;;;;;;;5086021;28;20047;-58
2023/07/06 09:40:45;;;;;;;3.90;0.70;;;;;;;;;;5086344;28;20036;-59
2023/07/06 09:43:19;;;;;;;5.18;0.70;;;;;;;;;;5086294;28;20029;-57
2023/07/06 09:45:46;;;;;;;4.00;0.68;;;;;;;;;;5085866;28;20185;-59
2023/07/06 09:48:25;;;;;;;2.78;0.70;;;;;;;;;;5085831;28;20071;-57
2023/07/06 09:50:55;;;;;;;3.97;0.50;;;;;;;;;;5085924;28;20024;-54
2023/07/06 09:53:26;;;;;;;5.70;0.50;;;;;;;;;;5085715;28;20028;-54
2023/07/06 09:55:54;;;;;;;2.20;0.40;;;;;;;;;;5085696;28;20055;-57
2023/07/06 09:58:23;;;;;;;2.75;0.60;;;;;;;;;;5084768;28;20039;-58
2023/07/06 10:00:53;;;;;;;2.25;0.70;;;;;;;;;;5085524;28;20329;-51
2023/07/06 10:03:38;;;;;;;2.38;0.43;;;;;;;;;;5104444;28;20024;-60
2023/07/06 10:06:19;;;;;;;2.03;0.80;;;;;;;;;;5105945;28;20062;-60
2023/07/06 10:09:08;;;;;;;3.15;0.70;;;;;;;;;;5105644;28;20016;-59
2023/07/06 10:11:41;;;;;;;3.38;0.70;;;;;;;;;;5105704;28;20040;-59
2023/07/06 10:14:13;;;;;;;1.88;0.50;;;;;;;;;;5105849;28;20016;-56
2023/07/06 10:16:49;;;;;;;2.10;0.40;;;;;;;;;;5105849;28;20035;-57
2023/07/06 10:19:29;;;;;;;6.32;0.70;;;;;;;;;;5105816;28;20015;-56
2023/07/06 10:21:56;;;;;;;3.65;0.68;;;;;;;;;;5105455;28;20035;-57
2023/07/06 10:24:43;;;;;;;4.00;0.52;;;;;;;;;;5105576;28;20020;-58
2023/07/06 10:27:18;;;;;;;3.15;0.80;;;;;;;;;;5105212;28;20041;-58
2023/07/06 10:29:47;;;;;;;3.42;0.60;;;;;;;;;;5105725;28;20020;-59
2023/07/06 10:32:15;;;;;;;0.75;0.35;;;;;;;;;;5105447;28;20118;-59
2023/07/06 10:34:45;;;;;;;2.53;0.60;;;;;;;;;;5105997;28;20077;-59
2023/07/06 10:37:16;;;;;;;1.58;0.50;;;;;;;;;;5104944;28;20220;-60
2023/07/06 10:39:45;;;;;;;3.53;0.52;;;;;;;;;;5105406;28;20087;-57
2023/07/06 10:42:25;;;;;;;3.42;0.40;;;;;;;;;;5098755;28;20012;-60
2023/07/06 10:44:55;;;;;;;3.22;0.70;;;;;;;;;;5105375;28;20083;-57
2023/07/06 10:47:34;;;;;;;3.53;0.73;;;;;;;;;;5096029;28;20182;-55
2023/07/06 10:50:03;;;;;;;3.50;0.73;;;;;;;;;;5106500;28;20047;-57
2023/07/06 10:52:33;;;;;;;7.63;0.60;;;;;;;;;;5125312;28;20308;-58
2023/07/06 10:55:00;;;;;;;6.78;0.63;;;;;;;;;;5125760;28;20294;-58
2023/07/06 10:57:33;;;;;;;4.38;0.63;;;;;;;;;;5125308;28;20182;-56
2023/07/06 11:00:13;;;;;;;2.97;0.60;;;;;;;;;;5125900;28;20020;-57
2023/07/06 11:02:40;;;;;;;5.53;1.00;;;;;;;;;;5125477;28;20032;-54
2023/07/06 11:05:39;;;;;;;2.60;0.65;;;;;;;;;;5125517;28;20025;-55
2023/07/06 11:08:10;;;;;;;4.18;0.75;;;;;;;;;;5067394;28;20070;-56
2023/07/06 11:10:37;;;;;;;8.43;1.25;;;;;;;;;;5124452;28;20031;-57
2023/07/06 11:13:08;;;;;;;4.90;1.02;;;;;;;;;;5124735;28;20309;-58
2023/07/06 11:15:38;;;;;;;7.80;1.42;;;;;;;;;;5125575;28;20312;-60
2023/07/06 11:18:24;;;;;;;5.10;1.48;;;;;;;;;;5108451;28;20031;-56
2023/07/06 11:21:05;;;;;;;5.35;1.30;;;;;;;;;;5104250;28;20320;-55
2023/07/06 11:23:42;;;;;;;6.07;1.17;;;;;;;;;;5104059;28;20015;-59
2023/07/06 11:26:18;;;;;;;9.65;1.40;;;;;;;;;;5100017;28;20059;-54
2023/07/06 11:28:45;;;;;;;4.63;1.40;;;;;;;;;;5102901;28;20043;-57
2023/07/06 11:31:29;;;;;;;7.05;1.15;;;;;;;;;;5098762;28;20040;-53
2023/07/06 11:34:00;;;;;;;6.88;1.25;;;;;;;;;;5093388;28;20133;-56
2023/07/06 11:36:39;;;;;;;6.32;1.40;;;;;;;;;;5109579;28;20028;-56
2023/07/06 11:39:13;;;;;;;7.40;1.40;;;;;;;;;;5093025;28;20228;-59
2023/07/06 11:41:43;;;;;;;6.50;1.88;;;;;;;;;;5093209;28;20207;-55
2023/07/06 11:44:13;;;;;;;6.25;1.65;;;;;;;;;;5084024;28;20025;-55
2023/07/06 11:46:58;;;;;;;12.80;2.75;;;;;;;;;;5065713;28;20232;-56
2023/07/06 11:49:25;;;;;;;10.48;2.50;;;;;;;;;;5099164;28;20016;-56
2023/07/06 11:51:52;;;;;;;5.50;2.22;;;;;;;;;;5101409;28;20031;-55
2023/07/06 11:57:24;;;;;;;14.70;4.03;;;;;;;;;;5070539;28;20060;-56
2023/07/06 12:00:09;;;;;;;14.25;4.35;;;;;;;;;;5084569;28;20051;-58
2023/07/06 12:02:37;;;;;;;7.82;3.15;;;;;;;;;;5083092;28;20319;-61
2023/07/06 12:05:04;;;;;;;10.95;3.60;;;;;;;;;;5085077;28;20033;-60
2023/07/06 12:07:35;;;;;;;13.02;4.00;;;;;;;;;;5084629;28;20016;-62
2023/07/06 12:12:56;;;;;;;11.50;4.18;;;;;;;;;;5083958;28;20364;-56
2023/07/06 12:15:23;;;;;;;13.95;3.70;;;;;;;;;;5084912;28;20078;-55
2023/07/06 12:17:58;;;;;;;16.70;4.97;;;;;;;;;;5084525;28;20039;-57
2023/07/06 12:20:25;;;;;;;13.85;4.40;;;;;;;;;;5084897;28;20034;-59
2023/07/06 12:22:57;;;;;;;13.05;4.55;;;;;;;;;;5087312;28;20311;-58
2023/07/06 12:25:25;;;;;;;14.32;3.80;;;;;;;;;;5088301;28;20044;-58
2023/07/06 12:28:01;;;;;;;12.93;4.47;;;;;;;;;;5088359;28;20356;-56
2023/07/06 12:30:34;;;;;;;10.25;4.28;;;;;;;;;;5088789;28;20169;-56
2023/07/06 12:33:05;;;;;;;12.65;4.55;;;;;;;;;;5070054;28;20070;-57
2023/07/06 12:35:34;;;;;;;14.32;5.20;;;;;;;;;;5088546;28;20065;-58
2023/07/06 12:38:03;;;;;;;16.63;4.95;;;;;;;;;;5087967;28;20031;-58
2023/07/06 12:40:34;;;;;;;16.77;5.05;;;;;;;;;;5088606;28;20043;-57
2023/07/06 12:43:04;;;;;;;12.55;4.38;;;;;;;;;;5087673;28;20029;-56
2023/07/06 12:45:31;;;;;;;14.40;5.05;;;;;;;;;;5087941;28;20031;-61
2023/07/06 12:48:03;;;;;;;14.63;5.20;;;;;;;;;;5087784;28;20031;-58
2023/07/06 12:50:38;;;;;;;12.40;4.45;;;;;;;;;;5088122;28;20185;-56
2023/07/06 12:53:09;;;;;;;13.07;4.63;;;;;;;;;;5087591;28;20033;-60
2023/07/06 12:55:36;;;;;;;15.98;5.15;;;;;;;;;;5088036;28;20037;-58
2023/07/06 12:58:28;;;;;;;12.38;4.63;;;;;;;;;;5087148;28;20048;-57
2023/07/06 13:01:03;;;;;;;14.95;4.72;;;;;;;;;;5087785;28;20032;-58
2023/07/06 13:03:30;;;;;;;12.73;4.13;;;;;;;;;;5087186;28;20021;-58
2023/07/06 13:05:57;;;;;;;14.13;5.30;;;;;;;;;;5087347;28;20028;-55
2023/07/06 13:08:24;;;;;;;11.57;4.60;;;;;;;;;;5087574;28;20260;-57
2023/07/06 13:11:03;;;;;;;13.82;4.93;;;;;;;;;;5087235;28;20066;-56
2023/07/06 13:13:34;;;;;;;13.75;4.75;;;;;;;;;;5087488;28;20033;-59
2023/07/06 13:16:01;;;;;;;14.35;4.68;;;;;;;;;;5087154;28;20028;-55
2023/07/06 13:18:29;;;;;;;12.30;4.43;;;;;;;;;;5087274;28;20036;-57
2023/07/06 13:20:56;;;;;;;15.68;5.15;;;;;;;;;;5086914;28;20043;-56
2023/07/06 13:23:23;;;;;;;11.52;5.05;;;;;;;;;;5086486;28;20024;-55
2023/07/06 13:25:53;;;;;;;16.00;5.93;;;;;;;;;;5086237;28;20056;-61
2023/07/06 13:28:23;;;;;;;18.25;5.75;;;;;;;;;;5086392;28;20078;-57
2023/07/06 13:30:50;;;;;;;14.43;5.55;;;;;;;;;;5086535;28;20025;-60
2023/07/06 13:33:18;;;;;;;20.67;5.93;;;;;;;;;;5067595;28;20332;-56
2023/07/06 13:35:46;;;;;;;13.70;5.88;;;;;;;;;;5086323;28;20032;-59
2023/07/06 13:38:13;;;;;;;12.95;5.30;;;;;;;;;;5085985;28;20024;-59
2023/07/06 13:40:41;;;;;;;20.10;6.47;;;;;;;;;;5086312;28;20021;-61
2023/07/06 13:43:14;;;;;;;17.38;6.10;;;;;;;;;;5086175;28;20034;-56
2023/07/06 13:45:43;;;;;;;15.43;6.28;;;;;;;;;;5086419;28;20024;-57
2023/07/06 13:48:15;;;;;;;14.95;6.55;;;;;;;;;;5086169;28;20343;-55
2023/07/06 13:50:42;;;;;;;19.95;6.85;;;;;;;;;;5069096;28;20032;-57
2023/07/06 13:53:11;;;;;;;14.65;6.10;;;;;;;;;;5085912;28;20051;-58
2023/07/06 13:55:44;;;;;;;12.60;5.50;;;;;;;;;;5086297;28;20039;-56
2023/07/06 13:58:11;;;;;;;15.05;5.90;;;;;;;;;;5068205;28;20108;-56
2023/07/06 14:00:39;;;;;;;15.27;5.38;;;;;;;;;;5085950;28;20320;-56
2023/07/06 14:03:07;;;;;;;15.60;5.68;;;;;;;;;;5085780;28;20078;-56
2023/07/06 14:05:35;;;;;;;13.93;5.97;;;;;;;;;;5086295;28;20032;-58
2023/07/06 14:08:03;;;;;;;14.70;5.65;;;;;;;;;;5093946;28;20066;-59
2023/07/06 14:10:32;;;;;;;13.88;5.45;;;;;;;;;;5100584;28;20055;-59
2023/07/06 14:12:58;;;;;;;35.17;18.25;;;;;;;;;;5101214;28;20055;-56
2023/07/06 14:15:25;;;;;;;40.00;23.70;;;;;;;;;;5106299;28;20257;-57
2023/07/06 14:17:52;;;;;;;40.72;21.73;;;;;;;;;;5102424;28;20035;-56
2023/07/06 14:20:19;;;;;;;31.88;15.88;;;;;;;;;;5094586;28;20084;-58
2023/07/06 14:22:46;;;;;;;24.92;13.05;;;;;;;;;;5085422;28;20083;-61
2023/07/06 14:25:15;;;;;;;20.65;9.68;;;;;;;;;;5085231;28;20367;-60
2023/07/06 14:27:42;;;;;;;20.65;9.27;;;;;;;;;;5086811;28;20216;-54
2023/07/06 14:30:10;;;;;;;17.45;9.20;;;;;;;;;;5086761;28;20024;-54
2023/07/06 14:32:37;;;;;;;21.70;8.05;;;;;;;;;;5104021;28;20047;-59
2023/07/06 14:35:04;;;;;;;19.67;8.10;;;;;;;;;;5104490;28;20044;-59
2023/07/06 14:37:31;;;;;;;16.15;7.43;;;;;;;;;;5104898;28;20047;-58
2023/07/06 14:39:59;;;;;;;16.38;7.00;;;;;;;;;;5103885;28;20276;-54
2023/07/06 14:42:25;;;;;;;15.55;7.00;;;;;;;;;;5103975;28;20316;-58
2023/07/06 14:44:52;;;;;;;19.30;7.82;;;;;;;;;;5103255;28;20038;-61
2023/07/06 14:47:19;;;;;;;13.98;6.75;;;;;;;;;;5103568;28;20043;-57
2023/07/06 14:49:45;;;;;;;18.13;7.38;;;;;;;;;;5104615;28;20031;-56
2023/07/06 14:52:12;;;;;;;16.40;7.25;;;;;;;;;;5104154;28;20027;-55
2023/07/06 14:54:38;;;;;;;14.98;6.13;;;;;;;;;;5104386;28;20035;-58
2023/07/06 14:57:06;;;;;;;16.40;6.32;;;;;;;;;;5104443;28;20304;-58
2023/07/06 14:59:33;;;;;;;17.05;6.68;;;;;;;;;;5106013;28;20075;-57
2023/07/06 15:02:00;;;;;;;20.75;6.95;;;;;;;;;;5105500;28;20044;-55
2023/07/06 15:04:26;;;;;;;15.32;6.53;;;;;;;;;;5105111;28;20035;-56
2023/07/06 15:06:53;;;;;;;14.07;6.28;;;;;;;;;;5105084;28;20090;-57
2023/07/06 15:09:20;;;;;;;16.35;6.32;;;;;;;;;;5105466;28;20038;-56